TPA weather

Tampa International Airport
Tampa, Florida, United States

Public forecast

Using degrees Fahrenheit for public forecast. Weather courtesy of forecast.io.

Current aviation weather report (METAR) for Tampa International Airport

Retrieved 2019/10/19 20:53 UTC (7 minutes ago):

KTPA 192053Z 18021G28KT 10SM FEW023 SCT055 28/24 A2974 RMK AO2 PK WND 20030/2025 RAB28E37 SLP071 P0000 60001 T02780239 56007

Aviation forecast (TAF) for Tampa International Airport

Retrieved 2019/10/19 18:27 UTC (3 hours ago):

TAF KTPA 191724Z 1918/2024 18016G26KT P6SM VCSH FEW015 BKN040 BKN150 FM200000 22010G15KT P6SM BKN050 BKN100 FM200300 23008KT P6SM BKN050 FM200900 23006KT P6SM SCT050 FM201500 27009KT P6SM SCT040